createdAt,value
2019-05-21T00:00:56.754Z,37.35
2019-05-21T00:05:00.479Z,36.93
2019-05-21T00:09:04.718Z,36.90
2019-05-21T00:13:08.183Z,42.48
2019-05-21T00:17:12.415Z,38.45
2019-05-21T00:21:15.899Z,37.85
2019-05-21T00:25:19.491Z,35.48
2019-05-21T00:29:58.853Z,46.75
2019-05-21T00:34:44.001Z,37.75
2019-05-21T00:39:19.996Z,38.92
2019-05-21T00:43:29.186Z,39.73
2019-05-21T00:47:32.654Z,36.80
2019-05-21T00:51:36.190Z,39.35
2019-05-21T00:55:39.931Z,35.48
2019-05-21T00:59:43.743Z,36.98
2019-05-21T01:03:47.202Z,37.98
2019-05-21T01:07:50.651Z,37.80
2019-05-21T01:11:54.445Z,37.00
2019-05-21T01:15:57.932Z,34.53
2019-05-21T01:20:01.682Z,33.67
2019-05-21T01:24:05.671Z,35.85
2019-05-21T01:28:09.415Z,34.65
2019-05-21T01:32:12.894Z,43.30
2019-05-21T01:36:16.391Z,41.77
2019-05-21T01:40:19.928Z,40.30
2019-05-21T01:44:23.740Z,45.45
2019-05-21T01:48:27.225Z,44.30
2019-05-21T01:52:30.743Z,44.00
2019-05-21T01:56:34.217Z,43.08
2019-05-21T02:00:37.704Z,48.02
2019-05-21T02:04:41.504Z,39.73
2019-05-21T02:08:45.038Z,37.80
2019-05-21T02:12:48.516Z,45.80
2019-05-21T02:16:51.962Z,41.37
2019-05-21T02:20:55.481Z,44.73
2019-05-21T02:24:59.245Z,46.77
2019-05-21T02:29:02.748Z,42.13
2019-05-21T02:33:06.230Z,44.15
2019-05-21T02:37:09.706Z,44.30
2019-05-21T02:41:13.420Z,47.67
2019-05-21T02:45:17.223Z,48.13
2019-05-21T02:49:20.677Z,51.30
2019-05-21T02:53:24.432Z,46.73
2019-05-21T02:57:40.883Z,47.55
2019-05-21T03:01:48.616Z,42.40
2019-05-21T03:05:52.354Z,44.03
2019-05-21T03:09:55.887Z,42.63
2019-05-21T03:13:59.380Z,49.13
2019-05-21T03:18:02.890Z,44.48
2019-05-21T03:22:06.454Z,50.78
2019-05-21T03:26:09.907Z,38.80
2019-05-21T03:30:13.610Z,38.42
2019-05-21T03:34:17.133Z,39.27
2019-05-21T03:38:20.952Z,38.60
2019-05-21T03:42:24.885Z,39.57
2019-05-21T03:46:28.670Z,38.15
2019-05-21T03:50:32.198Z,48.15
2019-05-21T03:54:35.670Z,45.33
2019-05-21T03:58:39.143Z,43.30
2019-05-21T04:02:42.978Z,46.58
2019-05-21T04:06:51.784Z,44.20
2019-05-21T04:10:51.927Z,41.37
2019-05-21T04:15:00.060Z,44.25
2019-05-21T04:19:16.943Z,40.70
2019-05-21T04:23:20.423Z,37.83
2019-05-21T04:27:23.959Z,40.80
2019-05-21T04:31:27.471Z,44.42
2019-05-21T04:35:30.946Z,37.73
2019-05-21T04:39:34.712Z,42.35
2019-05-21T04:43:38.478Z,44.33
2019-05-21T04:47:41.968Z,45.12
2019-05-21T04:51:45.424Z,44.95
2019-05-21T04:55:48.904Z,48.50
2019-05-21T04:59:52.390Z,54.63
2019-05-21T05:03:55.865Z,51.80
2019-05-21T05:08:02.379Z,48.02
2019-05-21T05:12:05.910Z,45.70
2019-05-21T05:16:13.609Z,48.05
2019-05-21T05:20:17.267Z,44.18
2019-05-21T05:24:20.713Z,49.13
2019-05-21T05:28:24.447Z,44.58
2019-05-21T05:32:27.901Z,47.20
2019-05-21T05:36:31.375Z,44.48
2019-05-21T05:40:34.853Z,41.70
2019-05-21T05:44:38.754Z,36.23
2019-05-21T05:48:43.872Z,37.90
2019-05-21T05:52:47.331Z,39.53
2019-05-21T05:56:52.898Z,42.97
2019-05-21T06:00:56.372Z,43.50
2019-05-21T06:05:00.088Z,49.53
2019-05-21T06:09:04.990Z,48.50
2019-05-21T06:13:08.785Z,49.60
2019-05-21T06:17:12.266Z,44.77
2019-05-21T06:21:15.804Z,48.38
2019-05-21T06:25:19.736Z,52.53
2019-05-21T06:29:23.610Z,53.45
2019-05-21T06:33:27.505Z,54.10
2019-05-21T06:37:33.624Z,49.67
2019-05-21T06:41:37.250Z,46.20
2019-05-21T06:45:41.261Z,48.02
2019-05-21T06:49:45.839Z,50.70
2019-05-21T06:53:51.925Z,50.58
2019-05-21T06:57:57.131Z,47.65
2019-05-21T07:02:00.928Z,60.25
2019-05-21T07:06:04.461Z,59.03
2019-05-21T07:10:08.474Z,59.58
2019-05-21T07:14:12.248Z,71.95
2019-05-21T07:18:15.951Z,62.93
2019-05-21T07:22:19.466Z,57.80
2019-05-21T07:26:22.927Z,58.60
2019-05-21T07:30:26.478Z,64.70
2019-05-21T07:34:30.216Z,58.35
2019-05-21T07:38:51.562Z,60.25
2019-05-21T07:42:39.253Z,66.03
2019-05-21T07:46:43.036Z,60.60
2019-05-21T07:50:46.767Z,65.42
2019-05-21T07:54:50.218Z,58.87
2019-05-21T07:58:53.974Z,60.38
2019-05-21T08:02:57.438Z,57.10
2019-05-21T08:07:01.150Z,62.45
2019-05-21T08:11:04.772Z,57.03
2019-05-21T08:15:08.957Z,56.00
2019-05-21T08:19:12.586Z,56.90
2019-05-21T08:23:16.294Z,50.30
2019-05-21T08:27:19.830Z,58.25
2019-05-21T08:31:23.282Z,62.90
2019-05-21T08:35:27.004Z,63.45
2019-05-21T08:39:30.473Z,60.58
2019-05-21T08:43:33.942Z,60.38
2019-05-21T08:47:37.715Z,55.55
2019-05-21T08:51:41.176Z,52.27
2019-05-21T08:55:44.694Z,49.58
2019-05-21T08:59:48.354Z,53.05
2019-05-21T09:03:51.850Z,42.93
2019-05-21T09:07:55.674Z,46.58
2019-05-21T09:11:59.493Z,45.95
2019-05-21T09:16:05.805Z,47.20
2019-05-21T09:20:11.060Z,47.17
2019-05-21T09:24:14.621Z,50.47
2019-05-21T09:28:18.142Z,35.83
2019-05-21T09:32:21.640Z,40.73
2019-05-21T09:36:25.435Z,39.25
2019-05-21T09:40:29.814Z,38.20
2019-05-21T09:44:33.339Z,30.08
2019-05-21T09:48:36.836Z,31.90
2019-05-21T09:52:40.280Z,23.75
2019-05-21T09:56:43.739Z,26.33
2019-05-21T10:01:00.817Z,31.42
2019-05-21T10:05:06.397Z,28.80
2019-05-21T10:09:11.930Z,25.17
2019-05-21T10:13:15.395Z,38.05
2019-05-21T10:17:18.864Z,35.68
2019-05-21T10:21:22.632Z,33.73
2019-05-21T10:25:26.175Z,32.83
2019-05-21T10:29:29.663Z,31.65
2019-05-21T10:33:33.476Z,31.05
2019-05-21T10:37:36.934Z,29.48
2019-05-21T10:41:40.405Z,30.15
2019-05-21T10:45:44.118Z,25.08
2019-05-21T10:49:47.594Z,25.65
2019-05-21T10:53:51.180Z,26.50
2019-05-21T10:57:54.811Z,22.30
2019-05-21T11:02:05.651Z,25.02
2019-05-21T11:06:10.656Z,27.98
2019-05-21T11:10:14.529Z,31.43
2019-05-21T11:14:18.025Z,29.55
2019-05-21T11:18:21.688Z,33.83
2019-05-21T11:22:25.142Z,29.02
2019-05-21T11:26:28.884Z,28.43
2019-05-21T11:30:32.800Z,27.65
2019-05-21T11:34:36.356Z,27.87
2019-05-21T11:38:40.558Z,28.30
2019-05-21T11:42:44.335Z,29.02
2019-05-21T11:46:47.880Z,27.42
2019-05-21T11:50:51.350Z,27.82
2019-05-21T11:54:55.997Z,28.57
2019-05-21T11:58:59.908Z,31.37
2019-05-21T12:03:03.727Z,25.27
2019-05-21T12:07:07.535Z,23.75
2019-05-21T12:11:11.177Z,31.45
2019-05-21T12:15:15.406Z,38.63
2019-05-21T12:19:19.215Z,30.27
2019-05-21T12:23:22.733Z,37.40
2019-05-21T12:27:28.047Z,38.70
2019-05-21T12:31:31.888Z,18.17
2019-05-21T12:35:35.388Z,16.17
2019-05-21T12:39:38.856Z,17.70
2019-05-21T12:43:42.322Z,17.55
2019-05-21T12:47:46.196Z,19.62
2019-05-21T12:51:49.661Z,19.45
2019-05-21T12:55:53.118Z,21.42
2019-05-21T12:59:56.595Z,21.27
2019-05-21T13:04:00.039Z,30.52
2019-05-21T13:08:03.602Z,31.97
2019-05-21T13:12:07.190Z,30.25
2019-05-21T13:16:10.662Z,33.40
2019-05-21T13:20:14.895Z,36.73
2019-05-21T13:24:18.475Z,38.70
2019-05-21T13:28:21.998Z,40.75
2019-05-21T13:32:25.542Z,38.28
2019-05-21T13:36:29.854Z,42.42
2019-05-21T13:40:34.600Z,42.73
2019-05-21T13:44:38.049Z,50.90
2019-05-21T13:48:41.520Z,55.98
2019-05-21T13:52:45.054Z,66.05
2019-05-21T13:56:48.771Z,66.82
2019-05-21T14:00:54.150Z,66.57
2019-05-21T14:04:57.602Z,71.83
2019-05-21T14:09:01.130Z,69.40
2019-05-21T14:13:04.875Z,68.37
2019-05-21T14:17:08.652Z,69.50
2019-05-21T14:21:12.457Z,65.73
2019-05-21T14:25:15.979Z,68.80
2019-05-21T14:29:19.757Z,66.80
2019-05-21T14:33:23.296Z,63.30
2019-05-21T14:37:26.762Z,69.53
2019-05-21T14:41:30.487Z,68.02
2019-05-21T14:45:34.737Z,64.87
2019-05-21T14:49:38.258Z,64.87
2019-05-21T14:53:41.815Z,68.72
2019-05-21T14:57:45.366Z,55.17
2019-05-21T15:01:49.102Z,61.15
2019-05-21T15:05:52.574Z,54.75
2019-05-21T15:09:56.406Z,43.08
2019-05-21T15:13:59.876Z,39.00
2019-05-21T15:18:03.409Z,32.60
2019-05-21T15:22:06.879Z,23.95
2019-05-21T15:26:10.629Z,28.60
2019-05-21T15:30:14.476Z,23.43
2019-05-21T15:34:18.010Z,23.18
2019-05-21T15:38:21.472Z,32.23
2019-05-21T15:42:25.199Z,34.95
2019-05-21T15:46:45.461Z,33.08
2019-05-21T15:50:33.964Z,38.77
2019-05-21T15:54:37.503Z,39.65
2019-05-21T15:58:41.244Z,42.90
2019-05-21T16:02:44.847Z,38.92
2019-05-21T16:06:48.370Z,41.48
2019-05-21T16:10:52.179Z,41.95
2019-05-21T16:14:56.586Z,40.83
2019-05-21T16:19:00.076Z,39.23
2019-05-21T16:23:03.553Z,43.80
2019-05-21T16:27:07.019Z,41.97
2019-05-21T16:31:10.468Z,35.90
2019-05-21T16:35:14.320Z,38.00
2019-05-21T16:39:19.438Z,33.42
2019-05-21T16:43:23.264Z,43.02
2019-05-21T16:47:43.925Z,45.25
2019-05-21T16:51:34.650Z,35.05
2019-05-21T16:55:38.296Z,35.13
2019-05-21T16:59:42.124Z,28.40
2019-05-21T17:03:59.156Z,32.00
2019-05-21T17:07:50.781Z,31.37
2019-05-21T17:12:00.172Z,33.13
2019-05-21T17:15:59.390Z,31.37
2019-05-21T17:20:03.760Z,29.57
2019-05-21T17:24:07.296Z,32.20
2019-05-21T17:28:10.810Z,29.12
2019-05-21T17:32:14.402Z,42.30
2019-05-21T17:36:17.862Z,32.08
2019-05-21T17:40:21.392Z,30.12
2019-05-21T17:44:25.047Z,26.73
2019-05-21T17:48:28.527Z,26.87
2019-05-21T17:52:32.255Z,27.50
2019-05-21T17:56:35.715Z,29.02
2019-05-21T18:00:49.540Z,24.47
2019-05-21T18:04:53.412Z,23.38
2019-05-21T18:08:56.880Z,20.48
2019-05-21T18:13:00.333Z,17.20
2019-05-21T18:17:05.193Z,16.57
2019-05-21T18:21:09.140Z,18.17
2019-05-21T18:25:14.182Z,17.55
2019-05-21T18:29:17.998Z,17.70
2019-05-21T18:33:21.511Z,17.98
2019-05-21T18:37:26.960Z,15.53
2019-05-21T18:41:30.534Z,20.50
2019-05-21T18:45:34.324Z,14.25
2019-05-21T18:49:37.767Z,15.05
2019-05-21T18:53:41.257Z,15.95
2019-05-21T18:57:44.910Z,16.90
2019-05-21T19:01:48.658Z,19.70
2019-05-21T19:05:52.193Z,18.60
2019-05-21T19:09:56.375Z,15.90
2019-05-21T19:13:59.822Z,16.45
2019-05-21T19:18:03.290Z,19.30
2019-05-21T19:22:07.082Z,18.27
2019-05-21T19:26:10.629Z,17.63
2019-05-21T19:30:15.227Z,16.12
2019-05-21T19:34:18.686Z,15.85
2019-05-21T19:38:22.162Z,16.80
2019-05-21T19:42:25.675Z,16.97
2019-05-21T19:46:29.436Z,21.27
2019-05-21T19:50:33.485Z,23.10
2019-05-21T19:54:36.946Z,31.60
2019-05-21T19:58:40.421Z,31.33
2019-05-21T20:02:44.175Z,30.90
2019-05-21T20:06:47.645Z,30.70
2019-05-21T20:10:51.447Z,34.70
2019-05-21T20:14:55.113Z,29.37
2019-05-21T20:18:58.836Z,32.50
2019-05-21T20:23:02.738Z,33.73
2019-05-21T20:27:07.534Z,32.45
2019-05-21T20:31:11.068Z,32.53
2019-05-21T20:35:16.168Z,31.17
2019-05-21T20:39:19.874Z,28.00
2019-05-21T20:43:24.318Z,30.25
2019-05-21T20:47:27.785Z,36.08
2019-05-21T20:51:31.853Z,32.30
2019-05-21T20:55:35.852Z,30.90
2019-05-21T20:59:39.550Z,29.80
2019-05-21T21:03:43.099Z,38.98
2019-05-21T21:07:46.688Z,32.40
2019-05-21T21:11:50.469Z,35.03
2019-05-21T21:15:54.675Z,36.28
2019-05-21T21:19:58.219Z,33.90
2019-05-21T21:24:02.228Z,28.75
2019-05-21T21:28:05.697Z,40.05
2019-05-21T21:32:09.501Z,38.88
2019-05-21T21:36:13.789Z,38.98
2019-05-21T21:40:18.483Z,42.33
2019-05-21T21:44:33.456Z,41.90
2019-05-21T21:48:29.031Z,47.65
2019-05-21T21:52:32.975Z,42.50
2019-05-21T21:56:36.527Z,45.33
2019-05-21T22:00:59.338Z,54.45
2019-05-21T22:05:03.348Z,49.77
2019-05-21T22:09:08.507Z,53.17
2019-05-21T22:13:13.075Z,51.20
2019-05-21T22:17:18.201Z,56.35
2019-05-21T22:21:22.362Z,53.13
2019-05-21T22:25:25.953Z,50.08
2019-05-21T22:29:29.459Z,48.87
2019-05-21T22:33:33.658Z,54.25
2019-05-21T22:37:37.131Z,57.75
2019-05-21T22:41:40.642Z,54.48
2019-05-21T22:45:44.189Z,56.15
2019-05-21T22:49:47.638Z,54.58
2019-05-21T22:53:51.458Z,58.48
2019-05-21T22:57:55.134Z,60.03
2019-05-21T23:01:59.088Z,54.90
2019-05-21T23:06:02.923Z,69.77
2019-05-21T23:10:08.161Z,77.65
2019-05-21T23:14:12.013Z,75.67
2019-05-21T23:18:15.552Z,69.87
2019-05-21T23:22:21.886Z,62.73
2019-05-21T23:26:25.338Z,68.95
2019-05-21T23:30:29.115Z,66.35
2019-05-21T23:34:32.573Z,57.00
2019-05-21T23:38:36.933Z,58.05
2019-05-21T23:42:42.033Z,69.15
2019-05-21T23:46:45.627Z,53.57
2019-05-21T23:50:49.097Z,59.60
2019-05-21T23:54:52.827Z,63.83
2019-05-21T23:58:56.723Z,60.50
